createdAt,value
2022-08-26T00:02:07.467Z,18.60
2022-08-26T00:04:35.932Z,18.50
2022-08-26T00:07:03.827Z,18.60
2022-08-26T00:09:33.484Z,18.50
2022-08-26T00:12:07.057Z,18.50
2022-08-26T00:14:34.713Z,18.50
2022-08-26T00:17:02.475Z,18.50
2022-08-26T00:19:30.288Z,18.50
2022-08-26T00:21:58.075Z,18.50
2022-08-26T00:24:29.146Z,18.50
2022-08-26T00:26:59.126Z,18.50
2022-08-26T00:29:26.814Z,18.50
2022-08-26T00:31:54.521Z,18.50
2022-08-26T00:34:22.255Z,18.40
2022-08-26T00:36:51.876Z,18.40
2022-08-26T00:39:20.708Z,18.40
2022-08-26T00:41:49.335Z,18.30
2022-08-26T00:44:17.330Z,18.30
2022-08-26T00:47:01.394Z,18.30
2022-08-26T00:49:39.273Z,18.30
2022-08-26T00:52:12.065Z,18.30
2022-08-26T00:55:02.859Z,18.30
2022-08-26T00:57:31.982Z,18.30
2022-08-26T01:00:01.915Z,18.20
2022-08-26T01:02:29.911Z,18.20
2022-08-26T01:05:03.403Z,18.30
2022-08-26T01:07:34.822Z,18.30
2022-08-26T01:10:06.749Z,18.20
2022-08-26T01:12:41.569Z,18.10
2022-08-26T01:15:15.695Z,18.10
2022-08-26T01:17:43.950Z,18.00
2022-08-26T01:20:39.375Z,17.90
2022-08-26T01:23:10.194Z,17.90
2022-08-26T01:25:47.758Z,17.80
2022-08-26T01:28:23.007Z,17.80
2022-08-26T01:30:53.307Z,17.70
2022-08-26T01:33:26.989Z,17.70
2022-08-26T01:35:54.890Z,17.70
2022-08-26T01:38:24.132Z,17.70
2022-08-26T01:40:51.990Z,17.60
2022-08-26T01:43:26.871Z,17.60
2022-08-26T01:45:57.130Z,17.60
2022-08-26T01:48:29.209Z,17.50
2022-08-26T01:50:57.735Z,17.50
2022-08-26T01:53:26.768Z,17.50
2022-08-26T01:56:00.860Z,17.50
2022-08-26T01:58:39.020Z,17.60
2022-08-26T02:01:07.458Z,17.60
2022-08-26T02:03:46.868Z,17.60
2022-08-26T02:06:15.153Z,17.60
2022-08-26T02:08:46.902Z,17.50
2022-08-26T02:11:15.441Z,17.40
2022-08-26T02:13:54.241Z,17.40
2022-08-26T02:16:27.367Z,17.50
2022-08-26T02:18:58.136Z,17.40
2022-08-26T02:21:26.246Z,17.40
2022-08-26T02:23:56.154Z,17.40
2022-08-26T02:26:28.447Z,17.40
2022-08-26T02:29:05.882Z,17.20
2022-08-26T02:31:35.510Z,17.30
2022-08-26T02:34:15.176Z,17.30
2022-08-26T02:36:43.570Z,17.20
2022-08-26T02:39:11.390Z,17.30
2022-08-26T02:41:44.797Z,17.20
2022-08-26T02:44:13.563Z,17.30
2022-08-26T02:46:42.026Z,17.30
2022-08-26T02:49:17.045Z,17.30
2022-08-26T02:51:44.989Z,17.20
2022-08-26T02:54:13.870Z,17.20
2022-08-26T02:56:41.780Z,17.20
2022-08-26T02:59:09.614Z,17.30
2022-08-26T03:01:37.508Z,17.30
2022-08-26T03:04:07.265Z,17.30
2022-08-26T03:06:34.988Z,17.20
2022-08-26T03:09:06.035Z,17.20
2022-08-26T03:11:33.991Z,17.20
2022-08-26T03:14:03.678Z,17.10
2022-08-26T03:16:37.302Z,17.10
2022-08-26T03:19:07.472Z,17.00
2022-08-26T03:21:37.435Z,17.10
2022-08-26T03:24:06.467Z,17.00
2022-08-26T03:26:34.156Z,17.00
2022-08-26T03:29:24.162Z,17.00
2022-08-26T03:31:51.977Z,17.00
2022-08-26T03:34:20.299Z,17.00
2022-08-26T03:36:50.843Z,17.00
2022-08-26T03:39:18.660Z,17.00
2022-08-26T03:41:46.590Z,17.10
2022-08-26T03:44:14.701Z,17.10
2022-08-26T03:46:42.457Z,17.10
2022-08-26T03:49:12.901Z,17.00
2022-08-26T03:51:43.060Z,17.00
2022-08-26T03:54:12.432Z,17.00
2022-08-26T03:56:40.234Z,17.00
2022-08-26T03:59:07.884Z,17.00
2022-08-26T04:01:36.003Z,16.90
2022-08-26T04:04:04.428Z,16.90
2022-08-26T04:06:44.892Z,16.90
2022-08-26T04:09:20.369Z,17.00
2022-08-26T04:11:50.480Z,17.00
2022-08-26T04:14:21.729Z,16.90
2022-08-26T04:16:50.821Z,16.80
2022-08-26T04:19:19.874Z,16.90
2022-08-26T04:21:49.532Z,16.80
2022-08-26T04:24:17.883Z,16.80
2022-08-26T04:26:45.696Z,16.90
2022-08-26T04:29:24.415Z,16.80
2022-08-26T04:31:55.450Z,16.80
2022-08-26T04:34:25.284Z,16.80
2022-08-26T04:36:57.244Z,16.90
2022-08-26T04:39:25.314Z,16.80
2022-08-26T04:41:55.820Z,16.80
2022-08-26T04:44:28.423Z,16.80
2022-08-26T04:46:57.220Z,16.80
2022-08-26T04:49:26.033Z,16.90
2022-08-26T04:51:55.318Z,16.90
2022-08-26T04:54:23.543Z,16.90
2022-08-26T04:56:53.170Z,16.90
2022-08-26T04:59:20.822Z,16.80
2022-08-26T05:01:52.410Z,16.90
2022-08-26T05:04:21.351Z,16.90
2022-08-26T05:06:50.106Z,17.00
2022-08-26T05:09:21.393Z,16.90
2022-08-26T05:11:52.350Z,16.90
2022-08-26T05:14:23.511Z,16.90
2022-08-26T05:16:51.979Z,17.00
2022-08-26T05:19:19.979Z,17.00
2022-08-26T05:21:49.567Z,17.00
2022-08-26T05:24:18.407Z,17.00
2022-08-26T05:26:48.115Z,17.00
2022-08-26T05:29:16.226Z,17.00
2022-08-26T05:31:44.813Z,17.10
2022-08-26T05:34:12.955Z,17.10
2022-08-26T05:36:40.705Z,17.10
2022-08-26T05:39:10.503Z,17.20
2022-08-26T05:41:41.253Z,17.20
2022-08-26T05:44:13.044Z,17.20
2022-08-26T05:46:44.005Z,17.20
2022-08-26T05:49:13.563Z,17.20
2022-08-26T05:51:45.556Z,17.10
2022-08-26T05:54:14.809Z,17.20
2022-08-26T05:56:51.450Z,17.30
2022-08-26T05:59:24.686Z,17.30
2022-08-26T06:01:55.069Z,17.30
2022-08-26T06:04:27.157Z,17.30
2022-08-26T06:06:56.077Z,17.40
2022-08-26T06:09:24.550Z,17.40
2022-08-26T06:11:52.295Z,17.40
2022-08-26T06:14:21.228Z,17.30
2022-08-26T06:16:49.122Z,17.30
2022-08-26T06:19:17.682Z,17.40
2022-08-26T06:21:53.948Z,17.30
2022-08-26T06:24:40.672Z,17.40
2022-08-26T06:27:13.922Z,17.40
2022-08-26T06:29:43.138Z,17.40
2022-08-26T06:32:11.028Z,17.40
2022-08-26T06:34:38.999Z,17.30
2022-08-26T06:37:06.742Z,17.30
2022-08-26T06:39:34.403Z,17.30
2022-08-26T06:42:03.289Z,17.30
2022-08-26T06:44:34.943Z,17.30
2022-08-26T06:47:02.567Z,17.30
2022-08-26T06:49:35.679Z,17.40
2022-08-26T06:52:04.845Z,17.40
2022-08-26T06:54:32.497Z,17.40
2022-08-26T06:57:01.458Z,17.40
2022-08-26T06:59:31.387Z,17.40
2022-08-26T07:01:59.186Z,17.40
2022-08-26T07:04:28.158Z,17.40
2022-08-26T07:06:57.407Z,17.50
2022-08-26T07:09:28.410Z,17.50
2022-08-26T07:11:56.901Z,17.40
2022-08-26T07:14:26.318Z,17.50
2022-08-26T07:16:55.089Z,17.60
2022-08-26T07:19:30.033Z,17.60
2022-08-26T07:22:03.337Z,17.60
2022-08-26T07:24:35.107Z,17.70
2022-08-26T07:27:08.741Z,17.70
2022-08-26T07:29:37.636Z,17.70
2022-08-26T07:32:06.206Z,17.70
2022-08-26T07:34:34.143Z,17.80
2022-08-26T07:37:02.137Z,17.70
2022-08-26T07:39:31.580Z,17.70
2022-08-26T07:42:01.660Z,17.80
2022-08-26T07:44:36.274Z,17.70
2022-08-26T07:47:04.086Z,17.70
2022-08-26T07:49:52.620Z,17.70
2022-08-26T07:52:25.336Z,17.70
2022-08-26T07:54:58.507Z,17.70
2022-08-26T07:57:27.724Z,17.70
2022-08-26T07:59:55.769Z,17.70
2022-08-26T08:02:25.201Z,17.70
2022-08-26T08:04:53.495Z,17.70
2022-08-26T08:07:38.270Z,17.80
2022-08-26T08:10:11.651Z,17.70
2022-08-26T08:12:40.201Z,17.70
2022-08-26T08:15:10.415Z,17.70
2022-08-26T08:17:39.186Z,17.70
2022-08-26T08:20:08.994Z,17.70
2022-08-26T08:22:36.929Z,17.70
2022-08-26T08:25:08.150Z,17.70
2022-08-26T08:27:39.739Z,17.70
2022-08-26T08:30:08.736Z,17.70
2022-08-26T08:32:38.665Z,17.80
2022-08-26T08:35:10.754Z,17.80
2022-08-26T08:37:39.694Z,17.80
2022-08-26T08:40:09.449Z,17.80
2022-08-26T08:42:53.795Z,17.80
2022-08-26T08:45:39.871Z,17.80
2022-08-26T08:48:13.416Z,17.90
2022-08-26T08:50:54.536Z,17.90
2022-08-26T08:53:44.773Z,17.90
2022-08-26T08:56:28.969Z,17.90
2022-08-26T08:59:15.525Z,17.90
2022-08-26T09:02:10.304Z,17.90
2022-08-26T09:05:15.080Z,17.90
2022-08-26T09:08:11.237Z,17.80
2022-08-26T09:10:40.849Z,17.70
2022-08-26T09:13:19.598Z,17.70
2022-08-26T09:16:10.078Z,17.90
2022-08-26T09:19:05.935Z,17.90
2022-08-26T09:21:33.926Z,17.90
2022-08-26T09:24:02.393Z,18.00
2022-08-26T09:26:53.091Z,18.00
2022-08-26T09:29:25.209Z,18.00
2022-08-26T09:32:13.988Z,18.10
2022-08-26T09:35:16.519Z,18.20
2022-08-26T09:40:30.229Z,18.30
2022-08-26T09:43:22.664Z,18.40
2022-08-26T09:45:59.408Z,18.40
2022-08-26T09:48:40.608Z,18.40
2022-08-26T09:51:35.146Z,18.40
2022-08-26T09:54:05.779Z,18.50
2022-08-26T09:56:39.174Z,18.70
2022-08-26T09:59:12.346Z,18.70
2022-08-26T10:01:43.416Z,18.70
2022-08-26T10:04:23.355Z,18.90
2022-08-26T10:07:04.595Z,19.00
2022-08-26T10:09:38.463Z,19.10
2022-08-26T10:12:17.679Z,19.20
2022-08-26T10:14:50.004Z,19.20
2022-08-26T10:17:26.980Z,19.30
2022-08-26T10:20:22.574Z,19.40
2022-08-26T10:23:19.175Z,19.50
2022-08-26T10:25:54.213Z,19.60
2022-08-26T10:28:48.535Z,19.70
2022-08-26T10:31:58.755Z,19.70
2022-08-26T10:34:31.814Z,19.80
2022-08-26T10:37:16.452Z,19.90
2022-08-26T10:39:44.445Z,19.90
2022-08-26T10:42:39.273Z,20.10
2022-08-26T10:45:25.635Z,20.20
2022-08-26T10:48:00.527Z,20.20
2022-08-26T10:50:34.840Z,20.30
2022-08-26T10:53:25.113Z,20.60
2022-08-26T10:56:18.542Z,20.70
2022-08-26T10:58:58.727Z,20.70
2022-08-26T11:01:52.480Z,20.80
2022-08-26T11:04:35.715Z,20.80
2022-08-26T11:07:36.552Z,20.80
2022-08-26T11:10:09.649Z,21.00
2022-08-26T11:12:37.562Z,21.10
2022-08-26T11:15:13.639Z,21.10
2022-08-26T11:17:47.530Z,21.20
2022-08-26T11:20:30.385Z,21.10
2022-08-26T11:23:20.704Z,21.20
2022-08-26T11:26:10.014Z,21.30
2022-08-26T11:28:51.081Z,21.40
2022-08-26T11:31:19.974Z,21.40
2022-08-26T11:33:51.805Z,21.60
2022-08-26T11:36:55.608Z,21.80
2022-08-26T11:39:29.108Z,21.90
2022-08-26T11:42:22.414Z,21.80
2022-08-26T11:44:51.284Z,21.90
2022-08-26T11:47:31.935Z,22.10
2022-08-26T11:50:15.581Z,22.30
2022-08-26T11:52:59.485Z,22.30
2022-08-26T11:55:28.050Z,22.40
2022-08-26T11:58:01.038Z,22.40
2022-08-26T12:00:33.350Z,22.60
2022-08-26T12:03:07.316Z,22.80
2022-08-26T12:05:47.027Z,22.80
2022-08-26T12:08:19.426Z,22.90
2022-08-26T12:10:48.644Z,22.90
2022-08-26T12:13:26.312Z,22.90
2022-08-26T12:16:00.400Z,23.00
2022-08-26T12:18:33.440Z,23.00
2022-08-26T12:21:16.604Z,23.00
2022-08-26T12:23:47.612Z,23.00
2022-08-26T12:26:30.575Z,23.10
2022-08-26T12:28:58.628Z,23.20
2022-08-26T12:31:40.048Z,23.30
2022-08-26T12:34:18.554Z,23.30
2022-08-26T12:36:54.164Z,23.40
2022-08-26T12:39:33.375Z,23.40
2022-08-26T12:42:21.299Z,23.50
2022-08-26T12:44:53.237Z,23.60
2022-08-26T12:47:42.684Z,23.70
2022-08-26T12:50:23.970Z,24.00
2022-08-26T12:53:15.828Z,24.10
2022-08-26T12:55:49.715Z,24.30
2022-08-26T12:58:23.858Z,24.20
2022-08-26T13:01:09.416Z,24.40
2022-08-26T13:03:46.139Z,24.40
2022-08-26T13:06:23.102Z,24.40
2022-08-26T13:09:06.435Z,24.50
2022-08-26T13:11:40.527Z,24.40
2022-08-26T13:14:11.402Z,24.30
2022-08-26T13:16:41.885Z,24.50
2022-08-26T13:19:13.333Z,24.50
2022-08-26T13:21:55.779Z,24.60
2022-08-26T13:24:31.970Z,24.80
2022-08-26T13:26:59.899Z,24.70
2022-08-26T13:29:27.807Z,24.80
2022-08-26T13:31:56.716Z,24.80
2022-08-26T13:34:25.658Z,24.80
2022-08-26T13:36:55.606Z,24.70
2022-08-26T13:39:24.123Z,24.60
2022-08-26T13:41:52.510Z,24.60
2022-08-26T13:44:20.669Z,24.80
2022-08-26T13:46:48.414Z,24.90
2022-08-26T13:49:16.449Z,24.90
2022-08-26T13:51:44.296Z,25.10
2022-08-26T13:54:12.003Z,25.10
2022-08-26T13:56:39.784Z,25.10
2022-08-26T13:59:07.438Z,25.20
2022-08-26T14:01:35.971Z,25.20
2022-08-26T14:04:04.343Z,25.30
2022-08-26T14:06:32.618Z,25.10
2022-08-26T14:09:00.866Z,24.90
2022-08-26T14:11:39.105Z,24.80
2022-08-26T14:14:18.105Z,24.70
2022-08-26T14:16:58.609Z,24.70
2022-08-26T14:19:31.891Z,24.90
2022-08-26T14:22:01.190Z,24.90
2022-08-26T14:24:29.407Z,25.20
2022-08-26T14:26:57.277Z,25.10
2022-08-26T14:29:24.993Z,25.20
2022-08-26T14:31:53.085Z,25.20
2022-08-26T14:34:20.867Z,25.30
2022-08-26T14:36:48.688Z,25.50
2022-08-26T14:39:16.378Z,25.40
2022-08-26T14:41:53.911Z,25.40
2022-08-26T14:44:26.104Z,25.60
2022-08-26T14:46:54.906Z,25.60
2022-08-26T14:49:24.525Z,25.40
2022-08-26T14:51:52.276Z,25.40
2022-08-26T14:54:21.161Z,25.10
2022-08-26T14:56:54.592Z,25.10
2022-08-26T14:59:25.810Z,25.10
2022-08-26T15:01:54.753Z,25.30
2022-08-26T15:04:23.434Z,25.40
2022-08-26T15:06:52.638Z,25.30
2022-08-26T15:09:20.487Z,25.20
2022-08-26T15:11:48.228Z,25.20
2022-08-26T15:14:19.460Z,25.30
2022-08-26T15:16:50.676Z,25.30
2022-08-26T15:19:19.161Z,25.20
2022-08-26T15:21:47.899Z,24.90
2022-08-26T15:24:18.574Z,24.80
2022-08-26T15:26:47.615Z,24.70
2022-08-26T15:29:15.935Z,24.60
2022-08-26T15:31:43.768Z,24.50
2022-08-26T15:34:16.326Z,24.40
2022-08-26T15:36:47.423Z,24.30
2022-08-26T15:39:16.746Z,24.20
2022-08-26T15:41:44.549Z,24.10
2022-08-26T15:44:14.341Z,24.00
2022-08-26T15:46:42.436Z,23.90
2022-08-26T15:49:16.934Z,23.90
2022-08-26T15:51:48.404Z,23.80
2022-08-26T15:54:17.851Z,23.70
2022-08-26T15:56:47.963Z,23.70
2022-08-26T15:59:16.128Z,23.60
2022-08-26T16:01:44.542Z,23.60
2022-08-26T16:04:12.729Z,23.50
2022-08-26T16:06:42.809Z,23.50
2022-08-26T16:09:11.671Z,23.50
2022-08-26T16:11:39.494Z,23.40
2022-08-26T16:14:08.118Z,23.40
2022-08-26T16:16:39.747Z,23.30
2022-08-26T16:19:08.606Z,23.30
2022-08-26T16:21:36.312Z,23.20
2022-08-26T16:24:05.228Z,23.20
2022-08-26T16:26:35.581Z,23.20
2022-08-26T16:29:07.903Z,23.20
2022-08-26T16:31:36.595Z,23.10
2022-08-26T16:34:04.724Z,23.10
2022-08-26T16:36:32.468Z,23.00
2022-08-26T16:39:00.258Z,23.00
2022-08-26T16:41:31.206Z,22.90
2022-08-26T16:43:59.085Z,22.90
2022-08-26T16:46:27.563Z,22.80
2022-08-26T16:48:57.185Z,22.80
2022-08-26T16:51:27.461Z,22.80
2022-08-26T16:53:58.816Z,22.80
2022-08-26T16:56:34.020Z,22.70
2022-08-26T16:59:07.741Z,22.70
2022-08-26T17:01:35.541Z,22.70
2022-08-26T17:04:03.436Z,22.70
2022-08-26T17:06:31.286Z,22.60
2022-08-26T17:08:58.964Z,22.50
2022-08-26T17:11:26.812Z,22.50
2022-08-26T17:13:54.466Z,22.40
2022-08-26T17:16:26.669Z,22.40
2022-08-26T17:18:59.226Z,22.40
2022-08-26T17:21:28.333Z,22.40
2022-08-26T17:23:56.731Z,22.30
2022-08-26T17:26:25.459Z,22.30
2022-08-26T17:28:53.897Z,22.20
2022-08-26T17:31:22.996Z,22.20
2022-08-26T17:33:53.290Z,22.10
2022-08-26T17:36:27.873Z,22.10
2022-08-26T17:38:57.721Z,22.00
2022-08-26T17:41:26.565Z,22.10
2022-08-26T17:43:54.349Z,22.00
2022-08-26T17:46:22.291Z,22.00
2022-08-26T17:48:50.074Z,21.90
2022-08-26T17:51:19.582Z,21.90
2022-08-26T17:53:48.360Z,21.90
2022-08-26T17:56:17.640Z,21.90
2022-08-26T17:58:48.146Z,21.80
2022-08-26T18:01:21.138Z,21.80
2022-08-26T18:03:49.288Z,21.80
2022-08-26T18:06:17.063Z,21.70
2022-08-26T18:08:45.305Z,21.70
2022-08-26T18:11:16.490Z,21.70
2022-08-26T18:13:47.279Z,21.60
2022-08-26T18:16:17.276Z,21.60
2022-08-26T18:18:45.389Z,21.60
2022-08-26T18:21:16.293Z,21.60
2022-08-26T18:23:45.292Z,21.50
2022-08-26T18:26:23.692Z,21.50
2022-08-26T18:28:54.522Z,21.40
2022-08-26T18:31:23.065Z,21.40
2022-08-26T18:33:50.800Z,21.40
2022-08-26T18:36:24.423Z,21.40
2022-08-26T18:38:54.401Z,21.30
2022-08-26T18:41:24.349Z,21.30
2022-08-26T18:43:53.490Z,21.30
2022-08-26T18:46:25.166Z,21.30
2022-08-26T18:48:57.030Z,21.20
2022-08-26T18:51:28.168Z,21.20
2022-08-26T18:53:56.416Z,21.20
2022-08-26T18:56:24.999Z,21.10
2022-08-26T18:58:52.777Z,21.10
2022-08-26T19:01:25.492Z,21.10
2022-08-26T19:03:55.049Z,21.10
2022-08-26T19:06:24.146Z,21.00
2022-08-26T19:08:51.942Z,21.10
2022-08-26T19:11:32.419Z,21.10
2022-08-26T19:14:07.558Z,21.00
2022-08-26T19:16:36.935Z,21.00
2022-08-26T19:19:05.049Z,20.90
2022-08-26T19:21:34.270Z,20.90
2022-08-26T19:24:04.750Z,20.90
2022-08-26T19:26:36.221Z,20.90
2022-08-26T19:29:07.775Z,20.80
2022-08-26T19:31:35.638Z,20.80
2022-08-26T19:34:05.534Z,20.80
2022-08-26T19:36:34.466Z,20.80
2022-08-26T19:39:05.570Z,20.70
2022-08-26T19:41:38.091Z,20.70
2022-08-26T19:44:38.557Z,20.70
2022-08-26T19:47:09.394Z,20.60
2022-08-26T19:49:37.844Z,20.70
2022-08-26T19:52:06.363Z,20.50
2022-08-26T19:54:35.498Z,20.60
2022-08-26T19:57:03.275Z,20.60
2022-08-26T19:59:33.249Z,20.60
2022-08-26T20:02:01.936Z,20.60
2022-08-26T20:04:33.686Z,20.50
2022-08-26T20:07:02.391Z,20.50
2022-08-26T20:09:34.505Z,20.50
2022-08-26T20:12:03.339Z,20.50
2022-08-26T20:14:31.018Z,20.50
2022-08-26T20:16:59.003Z,20.50
2022-08-26T20:19:44.876Z,20.40
2022-08-26T20:22:13.564Z,20.30
2022-08-26T20:24:42.669Z,20.30
2022-08-26T20:27:10.461Z,20.30
2022-08-26T20:29:39.160Z,20.30
2022-08-26T20:32:08.238Z,20.30
2022-08-26T20:34:37.473Z,20.30
2022-08-26T20:37:06.055Z,20.20
2022-08-26T20:39:34.045Z,20.20
2022-08-26T20:42:01.804Z,20.20
2022-08-26T20:44:29.642Z,20.10
2022-08-26T20:46:59.381Z,20.10
2022-08-26T20:49:28.360Z,20.10
2022-08-26T20:51:56.189Z,20.10
2022-08-26T20:54:28.401Z,20.10
2022-08-26T20:56:57.995Z,20.10
2022-08-26T20:59:27.320Z,20.10
2022-08-26T21:01:55.496Z,20.10
2022-08-26T21:04:26.032Z,20.10
2022-08-26T21:06:54.723Z,20.10
2022-08-26T21:09:26.288Z,20.10
2022-08-26T21:11:55.505Z,20.10
2022-08-26T21:14:25.900Z,20.10
2022-08-26T21:16:54.145Z,20.00
2022-08-26T21:19:22.371Z,20.00
2022-08-26T21:21:50.467Z,20.00
2022-08-26T21:24:18.319Z,20.00
2022-08-26T21:26:46.510Z,20.00
2022-08-26T21:29:14.547Z,20.00
2022-08-26T21:31:46.358Z,20.00
2022-08-26T21:34:19.236Z,19.90
2022-08-26T21:36:48.081Z,19.90
2022-08-26T21:39:17.019Z,19.90
2022-08-26T21:41:46.021Z,19.90
2022-08-26T21:44:15.486Z,19.90
2022-08-26T21:46:45.457Z,19.80
2022-08-26T21:49:16.310Z,19.80
2022-08-26T21:51:46.830Z,19.80
2022-08-26T21:54:15.126Z,19.70
2022-08-26T21:56:46.992Z,19.70
2022-08-26T21:59:17.824Z,19.70
2022-08-26T22:01:46.224Z,19.70
2022-08-26T22:04:14.205Z,19.60
2022-08-26T22:06:46.406Z,19.60
2022-08-26T22:09:16.397Z,19.70
2022-08-26T22:11:44.814Z,19.70
2022-08-26T22:14:12.878Z,19.60
2022-08-26T22:16:40.820Z,19.60
2022-08-26T22:19:13.808Z,19.50
2022-08-26T22:21:45.650Z,19.50
2022-08-26T22:24:13.777Z,19.40
2022-08-26T22:26:42.701Z,19.50
2022-08-26T22:29:10.619Z,19.50
2022-08-26T22:31:39.105Z,19.40
2022-08-26T22:34:12.352Z,19.40
2022-08-26T22:36:44.517Z,19.40
2022-08-26T22:39:17.828Z,19.50
2022-08-26T22:41:48.716Z,19.40
2022-08-26T22:44:17.998Z,19.30
2022-08-26T22:46:46.215Z,19.40
2022-08-26T22:49:18.137Z,19.30
2022-08-26T22:51:48.936Z,19.30
2022-08-26T22:54:17.341Z,19.30
2022-08-26T22:56:45.756Z,19.20
2022-08-26T22:59:14.189Z,19.20
2022-08-26T23:01:43.545Z,19.20
2022-08-26T23:04:12.449Z,19.20
2022-08-26T23:06:43.498Z,19.20
2022-08-26T23:09:18.665Z,19.20
2022-08-26T23:11:48.829Z,19.10
2022-08-26T23:14:18.735Z,19.10
2022-08-26T23:16:47.905Z,19.00
2022-08-26T23:19:17.459Z,18.90
2022-08-26T23:21:45.455Z,19.00
2022-08-26T23:24:13.644Z,19.10
2022-08-26T23:26:43.885Z,19.10
2022-08-26T23:29:14.419Z,19.00
2022-08-26T23:31:43.639Z,19.10
2022-08-26T23:34:30.380Z,19.10
2022-08-26T23:36:59.297Z,19.10
2022-08-26T23:39:29.611Z,19.00
2022-08-26T23:41:58.383Z,19.00
2022-08-26T23:44:26.989Z,19.10
2022-08-26T23:46:55.489Z,19.10
2022-08-26T23:49:23.440Z,19.10
2022-08-26T23:52:09.559Z,19.10
2022-08-26T23:54:37.989Z,19.00
2022-08-26T23:57:06.876Z,19.10
2022-08-26T23:59:35.127Z,19.10
